createdAt,value
2023-04-07T00:01:55.257Z,7.30
2023-04-07T00:06:57.740Z,5.67
2023-04-07T00:12:02.753Z,5.83
2023-04-07T00:17:07.187Z,5.97
2023-04-07T00:22:09.746Z,4.57
2023-04-07T00:27:12.234Z,5.57
2023-04-07T00:32:14.681Z,5.57
2023-04-07T00:37:19.367Z,6.40
2023-04-07T00:42:21.798Z,6.73
2023-04-07T00:47:24.376Z,6.80
2023-04-07T00:52:29.154Z,7.50
2023-04-07T00:57:31.737Z,6.00
2023-04-07T01:02:58.208Z,5.70
2023-04-07T01:08:45.328Z,6.90
2023-04-07T01:13:50.994Z,5.90
2023-04-07T01:19:26.218Z,6.77
2023-04-07T01:24:44.226Z,7.23
2023-04-07T01:29:48.501Z,5.87
2023-04-07T01:34:52.596Z,6.83
2023-04-07T01:39:55.407Z,6.40
2023-04-07T01:44:59.004Z,5.53
2023-04-07T01:50:04.707Z,6.00
2023-04-07T01:55:07.950Z,7.33
2023-04-07T02:00:15.333Z,5.73
2023-04-07T02:05:22.434Z,6.93
2023-04-07T02:10:27.013Z,6.00
2023-04-07T02:15:34.250Z,7.10
2023-04-07T02:20:37.819Z,6.43
2023-04-07T02:25:40.384Z,8.20
2023-04-07T02:30:42.896Z,6.97
2023-04-07T02:35:48.141Z,7.20
2023-04-07T02:40:50.621Z,8.53
2023-04-07T02:45:53.189Z,8.00
2023-04-07T02:50:55.579Z,9.07
2023-04-07T02:55:58.746Z,7.20
2023-04-07T03:01:01.350Z,9.57
2023-04-07T03:06:07.081Z,9.00
2023-04-07T03:11:12.925Z,8.87
2023-04-07T03:16:15.549Z,12.40
2023-04-07T03:21:32.072Z,8.97
2023-04-07T03:26:34.905Z,11.43
2023-04-07T03:31:38.934Z,7.80
2023-04-07T03:36:41.598Z,7.40
2023-04-07T03:41:44.200Z,9.37
2023-04-07T03:46:48.325Z,8.90
2023-04-07T03:51:52.186Z,8.73
2023-04-07T03:56:56.903Z,8.50
2023-04-07T04:01:59.714Z,8.53
2023-04-07T04:07:02.519Z,9.53
2023-04-07T04:12:14.561Z,9.37
2023-04-07T04:17:29.900Z,8.93
2023-04-07T04:22:32.689Z,7.07
2023-04-07T04:27:35.563Z,10.27
2023-04-07T04:32:44.832Z,9.23
2023-04-07T04:37:47.283Z,11.60
2023-04-07T04:49:34.239Z,11.73
2023-04-07T04:54:42.006Z,9.47
2023-04-07T04:59:47.955Z,12.70
2023-04-07T05:04:53.315Z,11.17
2023-04-07T05:10:00.647Z,9.17
2023-04-07T05:15:03.366Z,12.67
2023-04-07T05:20:12.152Z,10.93
2023-04-07T05:25:19.441Z,9.50
2023-04-07T05:30:25.718Z,9.87
2023-04-07T05:35:28.764Z,13.13
2023-04-07T05:40:35.053Z,9.50
2023-04-07T05:45:39.771Z,8.97
2023-04-07T05:50:43.566Z,29.00
2023-04-07T05:55:49.652Z,13.20
2023-04-07T06:01:10.928Z,8.73
2023-04-07T06:06:13.612Z,9.03
2023-04-07T06:11:16.809Z,9.93
2023-04-07T06:16:19.804Z,8.03
2023-04-07T06:21:22.500Z,8.47
2023-04-07T06:26:25.338Z,8.60
2023-04-07T06:31:31.094Z,8.23
2023-04-07T06:36:34.000Z,9.57
2023-04-07T06:41:37.146Z,8.80
2023-04-07T06:46:42.399Z,8.30
2023-04-07T06:51:45.131Z,10.60
2023-04-07T07:24:40.234Z,13.10
2023-04-07T07:29:56.531Z,15.23
2023-04-07T07:35:56.351Z,12.33
2023-04-07T07:41:47.170Z,13.03
2023-04-07T07:47:40.000Z,15.87
2023-04-07T07:59:40.412Z,14.90
2023-04-07T08:16:50.955Z,16.77
2023-04-07T08:21:53.424Z,16.83
2023-04-07T08:26:56.109Z,17.13
2023-04-07T08:43:10.760Z,17.43
2023-04-07T08:48:27.015Z,31.83
2023-04-07T08:59:51.734Z,19.80
2023-04-07T09:05:10.086Z,18.93
2023-04-07T09:10:21.148Z,18.23
2023-04-07T09:15:35.822Z,17.13
2023-04-07T09:21:01.992Z,42.93
2023-04-07T09:26:25.281Z,49.63
2023-04-07T09:32:16.318Z,160.00
2023-04-07T09:37:47.424Z,49.07
2023-04-07T09:43:00.501Z,27.30
2023-04-07T09:48:23.217Z,22.48
2023-04-07T09:53:55.491Z,19.10
2023-04-07T09:59:04.294Z,13.23
2023-04-07T10:04:10.332Z,17.43
2023-04-07T10:09:13.132Z,12.63
2023-04-07T10:14:16.774Z,12.80
2023-04-07T10:24:55.968Z,20.87
2023-04-07T10:30:00.295Z,15.90
2023-04-07T10:35:02.572Z,20.20
2023-04-07T10:40:34.939Z,21.03
2023-04-07T10:45:49.112Z,12.90
2023-04-07T10:51:07.355Z,10.83
2023-04-07T10:56:09.618Z,11.77
2023-04-07T11:01:12.594Z,12.77
2023-04-07T11:06:14.988Z,12.93
2023-04-07T11:11:38.741Z,13.53
2023-04-07T11:16:43.504Z,13.10
2023-04-07T11:21:46.191Z,13.60
2023-04-07T11:26:50.554Z,11.60
2023-04-07T11:31:53.276Z,12.10
2023-04-07T11:36:59.531Z,12.77
2023-04-07T11:42:01.867Z,13.53
2023-04-07T11:47:05.183Z,12.93
2023-04-07T11:52:07.728Z,16.23
2023-04-07T11:57:12.870Z,11.27
2023-04-07T12:02:34.834Z,13.73
2023-04-07T12:07:38.557Z,11.13
2023-04-07T12:12:46.315Z,12.03
2023-04-07T12:17:49.280Z,13.97
2023-04-07T12:22:51.608Z,14.93
2023-04-07T12:27:54.317Z,14.20
2023-04-07T12:32:56.604Z,18.83
2023-04-07T12:37:58.842Z,18.30
2023-04-07T12:43:01.184Z,18.00
2023-04-07T12:48:03.732Z,20.63
2023-04-07T12:53:06.085Z,26.77
2023-04-07T12:58:09.482Z,19.30
2023-04-07T13:03:11.963Z,19.27
2023-04-07T13:08:14.345Z,21.17
2023-04-07T13:13:16.673Z,23.27
2023-04-07T13:18:19.218Z,24.53
2023-04-07T13:23:21.484Z,23.27
2023-04-07T13:28:25.363Z,25.40
2023-04-07T13:33:27.600Z,30.37
2023-04-07T13:38:29.846Z,34.53
2023-04-07T13:43:32.106Z,31.50
2023-04-07T13:48:34.408Z,36.70
2023-04-07T13:53:36.903Z,31.33
2023-04-07T13:58:39.443Z,33.83
2023-04-07T14:03:42.936Z,36.43
2023-04-07T14:08:45.570Z,38.63
2023-04-07T14:13:48.922Z,38.13
2023-04-07T14:18:51.723Z,34.93
2023-04-07T14:23:55.134Z,40.37
2023-04-07T14:28:58.496Z,40.80
2023-04-07T14:34:00.976Z,32.17
2023-04-07T14:39:03.990Z,36.80
2023-04-07T14:44:09.007Z,35.03
2023-04-07T14:49:13.171Z,32.43
2023-04-07T14:54:18.101Z,39.27
2023-04-07T14:59:20.594Z,36.70
2023-04-07T15:05:20.297Z,35.37
2023-04-07T15:10:25.458Z,33.20
2023-04-07T15:15:27.945Z,36.80
2023-04-07T15:20:30.283Z,40.40
2023-04-07T15:25:32.581Z,40.23
2023-04-07T15:30:37.203Z,37.60
2023-04-07T15:35:43.994Z,44.63
2023-04-07T15:40:46.457Z,36.60
2023-04-07T15:45:48.781Z,37.30
2023-04-07T15:50:52.048Z,44.67
2023-04-07T15:55:54.900Z,44.03
2023-04-07T16:00:57.500Z,47.40
2023-04-07T16:05:59.831Z,43.13
2023-04-07T16:11:02.096Z,46.20
2023-04-07T16:16:04.588Z,45.13
2023-04-07T16:21:08.634Z,49.90
2023-04-07T16:26:11.102Z,50.27
2023-04-07T16:31:14.325Z,54.00
2023-04-07T16:36:16.751Z,52.27
2023-04-07T16:41:20.190Z,49.77
2023-04-07T16:46:26.058Z,49.07
2023-04-07T16:51:29.495Z,57.30
2023-04-07T16:56:31.792Z,47.70
2023-04-07T17:01:34.164Z,50.83
2023-04-07T17:06:36.606Z,55.07
2023-04-07T17:11:41.063Z,54.80
2023-04-07T17:16:43.393Z,52.70
2023-04-07T17:21:46.614Z,53.93
2023-04-07T17:26:49.145Z,62.80
2023-04-07T17:31:52.004Z,57.33
2023-04-07T17:36:54.222Z,65.83
2023-04-07T17:42:00.211Z,52.30
2023-04-07T17:47:02.834Z,52.40
2023-04-07T17:52:13.501Z,46.87
2023-04-07T17:57:16.901Z,49.03
2023-04-07T18:02:19.432Z,53.30
2023-04-07T18:07:22.377Z,47.63
2023-04-07T18:12:24.812Z,45.60
2023-04-07T18:17:27.226Z,49.30
2023-04-07T18:22:30.417Z,47.90
2023-04-07T18:27:32.831Z,53.10
2023-04-07T18:32:35.882Z,50.20
2023-04-07T18:37:38.322Z,47.30
2023-04-07T18:42:40.779Z,139.77
2023-04-07T18:47:43.200Z,52.53
2023-04-07T18:52:45.752Z,52.97
2023-04-07T18:57:48.892Z,86.47
2023-04-07T19:02:51.528Z,59.50
2023-04-07T19:07:54.116Z,150.97
2023-04-07T19:12:56.558Z,137.27
2023-04-07T19:17:58.979Z,64.27
2023-04-07T19:23:02.108Z,49.60
2023-04-07T19:28:05.457Z,46.47
2023-04-07T19:33:08.255Z,52.53
2023-04-07T19:38:10.966Z,56.27
2023-04-07T19:43:14.254Z,56.53
2023-04-07T19:48:17.581Z,59.50
2023-04-07T19:53:20.118Z,52.13
2023-04-07T19:58:23.450Z,46.73
2023-04-07T20:03:25.942Z,45.23
2023-04-07T20:08:28.323Z,47.33
2023-04-07T20:13:31.830Z,47.23
2023-04-07T20:18:34.286Z,45.23
2023-04-07T20:23:36.755Z,47.53
2023-04-07T20:28:39.162Z,48.30
2023-04-07T20:33:42.034Z,46.13
2023-04-07T20:38:44.578Z,49.80
2023-04-07T20:43:47.030Z,46.93
2023-04-07T20:48:49.579Z,54.30
2023-04-07T20:53:52.243Z,55.53
2023-04-07T20:58:54.919Z,58.67
2023-04-07T21:03:57.625Z,59.87
2023-04-07T21:09:00.125Z,57.80
2023-04-07T21:14:03.207Z,56.50
2023-04-07T21:19:06.362Z,47.43
2023-04-07T21:24:08.719Z,51.13
2023-04-07T21:29:11.381Z,52.60
2023-04-07T21:34:14.381Z,53.17
2023-04-07T21:39:16.787Z,59.67
2023-04-07T21:44:21.104Z,58.37
2023-04-07T21:49:25.369Z,53.17
2023-04-07T21:54:27.725Z,53.43
2023-04-07T21:59:30.066Z,52.57
2023-04-07T22:04:32.546Z,59.43
2023-04-07T22:09:35.103Z,57.27
2023-04-07T22:14:37.436Z,54.23
2023-04-07T22:19:39.829Z,58.47
2023-04-07T22:24:42.167Z,58.93
2023-04-07T22:29:44.544Z,48.13
2023-04-07T22:34:47.681Z,44.87
2023-04-07T22:39:50.048Z,38.90
2023-04-07T22:44:52.620Z,37.50
2023-04-07T22:49:55.024Z,30.93
2023-04-07T22:54:57.905Z,26.13
2023-04-07T23:00:00.571Z,24.13
2023-04-07T23:05:03.304Z,19.30
2023-04-07T23:10:07.831Z,21.43
2023-04-07T23:15:10.766Z,20.33
2023-04-07T23:20:13.284Z,17.37
2023-04-07T23:25:15.753Z,20.30
2023-04-07T23:30:18.333Z,19.93
2023-04-07T23:35:21.138Z,21.80
2023-04-07T23:40:23.611Z,16.73
2023-04-07T23:45:26.110Z,20.10
2023-04-07T23:50:28.526Z,18.73
2023-04-07T23:55:31.268Z,22.00
